sensor_id;sensor_type;location;lat;lon;timestamp;P1;durP1;ratioP1;P2;durP2;ratioP2
43327;SDS011;28923;45.412;10.852;2023-04-24T00:01:35;10.73;;;7.45;;
43327;SDS011;28923;45.412;10.852;2023-04-24T00:04:02;8.95;;;6.90;;
43327;SDS011;28923;45.412;10.852;2023-04-24T00:06:28;10.90;;;7.28;;
43327;SDS011;28923;45.412;10.852;2023-04-24T00:09:01;10.00;;;7.07;;
43327;SDS011;28923;45.412;10.852;2023-04-24T00:11:26;9.05;;;6.45;;
43327;SDS011;28923;45.412;10.852;2023-04-24T00:13:52;9.50;;;6.65;;
43327;SDS011;28923;45.412;10.852;2023-04-24T00:16:17;8.88;;;6.28;;
43327;SDS011;28923;45.412;10.852;2023-04-24T00:18:43;9.82;;;6.63;;
43327;SDS011;28923;45.412;10.852;2023-04-24T00:21:10;9.77;;;6.53;;
43327;SDS011;28923;45.412;10.852;2023-04-24T00:23:35;8.45;;;5.95;;
43327;SDS011;28923;45.412;10.852;2023-04-24T00:26:01;9.38;;;6.30;;
43327;SDS011;28923;45.412;10.852;2023-04-24T00:28:27;8.57;;;5.78;;
43327;SDS011;28923;45.412;10.852;2023-04-24T00:30:52;8.75;;;5.65;;
43327;SDS011;28923;45.412;10.852;2023-04-24T00:33:18;8.73;;;5.90;;
43327;SDS011;28923;45.412;10.852;2023-04-24T00:35:44;8.93;;;6.10;;
43327;SDS011;28923;45.412;10.852;2023-04-24T00:38:09;8.63;;;5.82;;
43327;SDS011;28923;45.412;10.852;2023-04-24T00:40:35;7.50;;;5.60;;
43327;SDS011;28923;45.412;10.852;2023-04-24T00:43:00;6.82;;;5.38;;
43327;SDS011;28923;45.412;10.852;2023-04-24T00:45:26;6.85;;;5.32;;
43327;SDS011;28923;45.412;10.852;2023-04-24T00:47:52;7.32;;;5.20;;
43327;SDS011;28923;45.412;10.852;2023-04-24T00:50:17;7.35;;;4.85;;
43327;SDS011;28923;45.412;10.852;2023-04-24T00:52:44;8.35;;;5.65;;
43327;SDS011;28923;45.412;10.852;2023-04-24T00:55:09;7.78;;;4.93;;
43327;SDS011;28923;45.412;10.852;2023-04-24T00:57:35;5.97;;;4.88;;
43327;SDS011;28923;45.412;10.852;2023-04-24T01:00:01;7.32;;;5.25;;
43327;SDS011;28923;45.412;10.852;2023-04-24T01:02:26;7.95;;;5.30;;
43327;SDS011;28923;45.412;10.852;2023-04-24T01:04:52;5.88;;;4.72;;
43327;SDS011;28923;45.412;10.852;2023-04-24T01:07:20;7.07;;;4.68;;
43327;SDS011;28923;45.412;10.852;2023-04-24T01:09:46;6.03;;;4.60;;
43327;SDS011;28923;45.412;10.852;2023-04-24T01:12:14;7.28;;;4.57;;
43327;SDS011;28923;45.412;10.852;2023-04-24T01:14:40;6.13;;;4.60;;
43327;SDS011;28923;45.412;10.852;2023-04-24T01:17:05;5.72;;;4.63;;
43327;SDS011;28923;45.412;10.852;2023-04-24T01:19:31;5.82;;;4.53;;
43327;SDS011;28923;45.412;10.852;2023-04-24T01:21:57;6.22;;;4.40;;
43327;SDS011;28923;45.412;10.852;2023-04-24T01:24:23;5.93;;;4.22;;
43327;SDS011;28923;45.412;10.852;2023-04-24T01:26:48;6.03;;;4.32;;
43327;SDS011;28923;45.412;10.852;2023-04-24T01:29:14;6.13;;;4.53;;
43327;SDS011;28923;45.412;10.852;2023-04-24T01:31:42;5.03;;;3.92;;
43327;SDS011;28923;45.412;10.852;2023-04-24T01:34:07;5.82;;;4.13;;
43327;SDS011;28923;45.412;10.852;2023-04-24T01:36:33;5.30;;;4.03;;
43327;SDS011;28923;45.412;10.852;2023-04-24T01:39:00;5.03;;;3.88;;
43327;SDS011;28923;45.412;10.852;2023-04-24T01:41:25;5.38;;;3.92;;
43327;SDS011;28923;45.412;10.852;2023-04-24T01:43:51;5.45;;;3.80;;
43327;SDS011;28923;45.412;10.852;2023-04-24T01:46:18;5.03;;;3.78;;
43327;SDS011;28923;45.412;10.852;2023-04-24T01:48:44;5.47;;;4.00;;
43327;SDS011;28923;45.412;10.852;2023-04-24T01:51:10;4.82;;;3.92;;
43327;SDS011;28923;45.412;10.852;2023-04-24T01:53:36;4.63;;;4.10;;
43327;SDS011;28923;45.412;10.852;2023-04-24T01:56:01;4.72;;;3.85;;
43327;SDS011;28923;45.412;10.852;2023-04-24T01:58:28;5.18;;;3.70;;
43327;SDS011;28923;45.412;10.852;2023-04-24T02:00:57;5.18;;;3.92;;
43327;SDS011;28923;45.412;10.852;2023-04-24T02:03:24;5.13;;;4.10;;
43327;SDS011;28923;45.412;10.852;2023-04-24T02:05:50;4.47;;;3.40;;
43327;SDS011;28923;45.412;10.852;2023-04-24T02:08:15;5.05;;;3.85;;
43327;SDS011;28923;45.412;10.852;2023-04-24T02:10:40;4.65;;;3.75;;
43327;SDS011;28923;45.412;10.852;2023-04-24T02:13:06;4.63;;;3.95;;
43327;SDS011;28923;45.412;10.852;2023-04-24T02:15:31;5.97;;;3.80;;
43327;SDS011;28923;45.412;10.852;2023-04-24T02:17:56;5.65;;;3.80;;
43327;SDS011;28923;45.412;10.852;2023-04-24T02:20:22;9.32;;;3.88;;
43327;SDS011;28923;45.412;10.852;2023-04-24T02:22:48;4.07;;;3.67;;
43327;SDS011;28923;45.412;10.852;2023-04-24T02:25:13;4.43;;;3.47;;
43327;SDS011;28923;45.412;10.852;2023-04-24T02:27:38;4.03;;;3.60;;
43327;SDS011;28923;45.412;10.852;2023-04-24T02:30:05;5.07;;;3.60;;
43327;SDS011;28923;45.412;10.852;2023-04-24T02:32:31;4.78;;;3.22;;
43327;SDS011;28923;45.412;10.852;2023-04-24T02:34:56;4.70;;;3.40;;
43327;SDS011;28923;45.412;10.852;2023-04-24T02:37:21;3.70;;;3.10;;
43327;SDS011;28923;45.412;10.852;2023-04-24T02:39:47;4.03;;;3.35;;
43327;SDS011;28923;45.412;10.852;2023-04-24T02:42:12;3.55;;;3.20;;
43327;SDS011;28923;45.412;10.852;2023-04-24T02:44:37;4.32;;;3.30;;
43327;SDS011;28923;45.412;10.852;2023-04-24T02:47:03;5.32;;;3.30;;
43327;SDS011;28923;45.412;10.852;2023-04-24T02:49:29;3.65;;;3.25;;
43327;SDS011;28923;45.412;10.852;2023-04-24T02:51:55;4.18;;;3.20;;
43327;SDS011;28923;45.412;10.852;2023-04-24T02:54:20;4.05;;;3.53;;
43327;SDS011;28923;45.412;10.852;2023-04-24T02:56:45;3.63;;;3.08;;
43327;SDS011;28923;45.412;10.852;2023-04-24T02:59:11;4.03;;;3.25;;
43327;SDS011;28923;45.412;10.852;2023-04-24T03:01:36;4.60;;;3.42;;
43327;SDS011;28923;45.412;10.852;2023-04-24T03:04:02;4.50;;;3.47;;
43327;SDS011;28923;45.412;10.852;2023-04-24T03:06:27;4.53;;;3.20;;
43327;SDS011;28923;45.412;10.852;2023-04-24T03:08:53;3.45;;;3.10;;
43327;SDS011;28923;45.412;10.852;2023-04-24T03:11:19;5.05;;;3.35;;
43327;SDS011;28923;45.412;10.852;2023-04-24T03:13:45;3.63;;;3.00;;
43327;SDS011;28923;45.412;10.852;2023-04-24T03:16:10;3.53;;;3.22;;
43327;SDS011;28923;45.412;10.852;2023-04-24T03:18:35;3.53;;;3.22;;
43327;SDS011;28923;45.412;10.852;2023-04-24T03:21:02;3.65;;;3.20;;
43327;SDS011;28923;45.412;10.852;2023-04-24T03:23:29;4.07;;;3.03;;
43327;SDS011;28923;45.412;10.852;2023-04-24T03:25:54;3.60;;;3.05;;
43327;SDS011;28923;45.412;10.852;2023-04-24T03:28:20;3.90;;;3.50;;
43327;SDS011;28923;45.412;10.852;2023-04-24T03:30:57;3.33;;;3.03;;
43327;SDS011;28923;45.412;10.852;2023-04-24T03:33:23;3.60;;;3.10;;
43327;SDS011;28923;45.412;10.852;2023-04-24T03:35:58;3.33;;;3.03;;
43327;SDS011;28923;45.412;10.852;2023-04-24T03:38:23;3.13;;;2.72;;
43327;SDS011;28923;45.412;10.852;2023-04-24T03:40:59;3.83;;;3.42;;
43327;SDS011;28923;45.412;10.852;2023-04-24T03:43:57;3.72;;;3.10;;
43327;SDS011;28923;45.412;10.852;2023-04-24T03:46:23;3.42;;;2.80;;
43327;SDS011;28923;45.412;10.852;2023-04-24T03:48:56;4.78;;;3.05;;
43327;SDS011;28923;45.412;10.852;2023-04-24T03:51:26;3.42;;;3.13;;
43327;SDS011;28923;45.412;10.852;2023-04-24T03:53:55;4.15;;;3.17;;
43327;SDS011;28923;45.412;10.852;2023-04-24T03:56:23;6.60;;;3.00;;
43327;SDS011;28923;45.412;10.852;2023-04-24T03:58:48;4.90;;;3.05;;
43327;SDS011;28923;45.412;10.852;2023-04-24T04:01:14;4.18;;;3.20;;
43327;SDS011;28923;45.412;10.852;2023-04-24T04:03:41;3.30;;;3.00;;
43327;SDS011;28923;45.412;10.852;2023-04-24T04:06:06;3.30;;;3.00;;
43327;SDS011;28923;45.412;10.852;2023-04-24T04:08:32;4.13;;;3.55;;
43327;SDS011;28923;45.412;10.852;2023-04-24T04:10:57;4.43;;;2.92;;
43327;SDS011;28923;45.412;10.852;2023-04-24T04:13:23;3.50;;;3.20;;
43327;SDS011;28923;45.412;10.852;2023-04-24T04:15:48;3.55;;;3.22;;
43327;SDS011;28923;45.412;10.852;2023-04-24T04:18:14;3.38;;;2.78;;
43327;SDS011;28923;45.412;10.852;2023-04-24T04:20:41;5.15;;;3.10;;
43327;SDS011;28923;45.412;10.852;2023-04-24T04:23:07;3.45;;;3.10;;
43327;SDS011;28923;45.412;10.852;2023-04-24T04:25:41;2.88;;;2.47;;
43327;SDS011;28923;45.412;10.852;2023-04-24T04:28:07;3.53;;;2.92;;
43327;SDS011;28923;45.412;10.852;2023-04-24T04:30:32;3.20;;;2.90;;
43327;SDS011;28923;45.412;10.852;2023-04-24T04:33:01;3.45;;;3.10;;
43327;SDS011;28923;45.412;10.852;2023-04-24T04:35:28;2.72;;;2.50;;
43327;SDS011;28923;45.412;10.852;2023-04-24T04:37:53;3.47;;;3.08;;
43327;SDS011;28923;45.412;10.852;2023-04-24T04:40:39;3.40;;;2.92;;
43327;SDS011;28923;45.412;10.852;2023-04-24T04:43:05;3.70;;;3.00;;
43327;SDS011;28923;45.412;10.852;2023-04-24T04:45:38;3.05;;;2.75;;
43327;SDS011;28923;45.412;10.852;2023-04-24T04:48:20;3.42;;;2.83;;
43327;SDS011;28923;45.412;10.852;2023-04-24T04:50:45;4.18;;;2.50;;
43327;SDS011;28923;45.412;10.852;2023-04-24T04:53:11;3.75;;;2.90;;
43327;SDS011;28923;45.412;10.852;2023-04-24T04:55:37;3.95;;;2.80;;
43327;SDS011;28923;45.412;10.852;2023-04-24T04:58:08;5.05;;;2.67;;
43327;SDS011;28923;45.412;10.852;2023-04-24T05:00:33;5.60;;;2.78;;
43327;SDS011;28923;45.412;10.852;2023-04-24T05:03:04;4.85;;;2.50;;
43327;SDS011;28923;45.412;10.852;2023-04-24T05:05:30;4.22;;;2.88;;
43327;SDS011;28923;45.412;10.852;2023-04-24T05:07:56;7.95;;;2.88;;
43327;SDS011;28923;45.412;10.852;2023-04-24T05:10:22;11.43;;;3.42;;
43327;SDS011;28923;45.412;10.852;2023-04-24T05:12:48;8.88;;;3.20;;
43327;SDS011;28923;45.412;10.852;2023-04-24T05:15:14;6.90;;;2.83;;
43327;SDS011;28923;45.412;10.852;2023-04-24T05:17:40;12.55;;;3.15;;
43327;SDS011;28923;45.412;10.852;2023-04-24T05:20:06;8.68;;;3.05;;
43327;SDS011;28923;45.412;10.852;2023-04-24T05:22:32;7.65;;;3.30;;
43327;SDS011;28923;45.412;10.852;2023-04-24T05:24:58;6.38;;;2.60;;
43327;SDS011;28923;45.412;10.852;2023-04-24T05:27:36;4.55;;;2.67;;
43327;SDS011;28923;45.412;10.852;2023-04-24T05:30:06;6.90;;;2.78;;
43327;SDS011;28923;45.412;10.852;2023-04-24T05:32:31;5.35;;;3.25;;
43327;SDS011;28923;45.412;10.852;2023-04-24T05:34:57;11.18;;;6.15;;
43327;SDS011;28923;45.412;10.852;2023-04-24T05:37:22;8.20;;;5.68;;
43327;SDS011;28923;45.412;10.852;2023-04-24T05:39:48;7.20;;;4.90;;
43327;SDS011;28923;45.412;10.852;2023-04-24T05:42:13;6.97;;;4.93;;
43327;SDS011;28923;45.412;10.852;2023-04-24T05:44:39;8.95;;;4.45;;
43327;SDS011;28923;45.412;10.852;2023-04-24T05:47:04;8.60;;;4.75;;
43327;SDS011;28923;45.412;10.852;2023-04-24T05:49:30;8.77;;;4.43;;
43327;SDS011;28923;45.412;10.852;2023-04-24T05:51:56;5.32;;;4.13;;
43327;SDS011;28923;45.412;10.852;2023-04-24T05:54:22;6.65;;;4.13;;
43327;SDS011;28923;45.412;10.852;2023-04-24T05:56:48;6.13;;;3.97;;
43327;SDS011;28923;45.412;10.852;2023-04-24T05:59:20;5.22;;;3.95;;
43327;SDS011;28923;45.412;10.852;2023-04-24T06:01:47;4.53;;;3.92;;
43327;SDS011;28923;45.412;10.852;2023-04-24T06:04:16;6.25;;;3.85;;
43327;SDS011;28923;45.412;10.852;2023-04-24T06:06:41;7.20;;;4.25;;
43327;SDS011;28923;45.412;10.852;2023-04-24T06:09:07;5.70;;;3.70;;
43327;SDS011;28923;45.412;10.852;2023-04-24T06:11:33;6.65;;;3.63;;
43327;SDS011;28923;45.412;10.852;2023-04-24T06:13:58;8.38;;;3.70;;
43327;SDS011;28923;45.412;10.852;2023-04-24T06:16:50;6.22;;;3.60;;
43327;SDS011;28923;45.412;10.852;2023-04-24T06:19:34;5.90;;;3.42;;
43327;SDS011;28923;45.412;10.852;2023-04-24T06:22:00;7.43;;;3.20;;
43327;SDS011;28923;45.412;10.852;2023-04-24T06:24:28;4.22;;;3.15;;
43327;SDS011;28923;45.412;10.852;2023-04-24T06:26:54;7.32;;;3.45;;
43327;SDS011;28923;45.412;10.852;2023-04-24T06:29:20;5.65;;;3.65;;
43327;SDS011;28923;45.412;10.852;2023-04-24T06:31:45;9.38;;;3.40;;
43327;SDS011;28923;45.412;10.852;2023-04-24T06:34:11;6.68;;;3.25;;
43327;SDS011;28923;45.412;10.852;2023-04-24T06:36:36;13.85;;;4.05;;
43327;SDS011;28923;45.412;10.852;2023-04-24T06:39:02;5.30;;;3.40;;
43327;SDS011;28923;45.412;10.852;2023-04-24T06:41:28;13.05;;;3.60;;
43327;SDS011;28923;45.412;10.852;2023-04-24T06:43:53;6.43;;;3.53;;
43327;SDS011;28923;45.412;10.852;2023-04-24T06:46:19;6.35;;;3.60;;
43327;SDS011;28923;45.412;10.852;2023-04-24T06:48:47;5.20;;;3.25;;
43327;SDS011;28923;45.412;10.852;2023-04-24T06:51:12;4.32;;;3.15;;
43327;SDS011;28923;45.412;10.852;2023-04-24T06:53:38;7.55;;;3.17;;
43327;SDS011;28923;45.412;10.852;2023-04-24T06:56:03;5.47;;;3.28;;
43327;SDS011;28923;45.412;10.852;2023-04-24T06:58:30;7.95;;;3.35;;
43327;SDS011;28923;45.412;10.852;2023-04-24T07:00:55;5.43;;;3.03;;
43327;SDS011;28923;45.412;10.852;2023-04-24T07:03:20;4.00;;;2.33;;
43327;SDS011;28923;45.412;10.852;2023-04-24T07:05:46;4.25;;;2.47;;
43327;SDS011;28923;45.412;10.852;2023-04-24T07:08:12;5.35;;;3.05;;
43327;SDS011;28923;45.412;10.852;2023-04-24T07:10:38;5.05;;;2.75;;
43327;SDS011;28923;45.412;10.852;2023-04-24T07:13:04;5.32;;;2.60;;
43327;SDS011;28923;45.412;10.852;2023-04-24T07:15:29;5.85;;;2.40;;
43327;SDS011;28923;45.412;10.852;2023-04-24T07:17:55;5.28;;;2.65;;
43327;SDS011;28923;45.412;10.852;2023-04-24T07:20:20;7.50;;;2.67;;
43327;SDS011;28923;45.412;10.852;2023-04-24T07:22:46;4.38;;;2.55;;
43327;SDS011;28923;45.412;10.852;2023-04-24T07:25:11;5.82;;;2.40;;
43327;SDS011;28923;45.412;10.852;2023-04-24T07:27:37;4.70;;;1.90;;
43327;SDS011;28923;45.412;10.852;2023-04-24T07:30:03;2.65;;;2.00;;
43327;SDS011;28923;45.412;10.852;2023-04-24T07:32:29;2.88;;;1.98;;
43327;SDS011;28923;45.412;10.852;2023-04-24T07:34:54;3.30;;;1.85;;
43327;SDS011;28923;45.412;10.852;2023-04-24T07:37:20;2.58;;;1.73;;
43327;SDS011;28923;45.412;10.852;2023-04-24T07:39:45;2.20;;;1.58;;
43327;SDS011;28923;45.412;10.852;2023-04-24T07:42:11;3.85;;;1.80;;
43327;SDS011;28923;45.412;10.852;2023-04-24T07:44:36;4.97;;;1.65;;
43327;SDS011;28923;45.412;10.852;2023-04-24T07:47:02;3.72;;;1.75;;
43327;SDS011;28923;45.412;10.852;2023-04-24T07:49:27;5.53;;;1.77;;
43327;SDS011;28923;45.412;10.852;2023-04-24T07:51:53;4.25;;;1.75;;
43327;SDS011;28923;45.412;10.852;2023-04-24T07:54:18;4.03;;;1.50;;
43327;SDS011;28923;45.412;10.852;2023-04-24T07:56:44;4.93;;;1.42;;
43327;SDS011;28923;45.412;10.852;2023-04-24T07:59:09;4.47;;;1.70;;
43327;SDS011;28923;45.412;10.852;2023-04-24T08:01:35;3.70;;;1.73;;
43327;SDS011;28923;45.412;10.852;2023-04-24T08:04:00;4.97;;;1.70;;
43327;SDS011;28923;45.412;10.852;2023-04-24T08:06:26;3.03;;;1.60;;
43327;SDS011;28923;45.412;10.852;2023-04-24T08:08:59;4.38;;;1.77;;
43327;SDS011;28923;45.412;10.852;2023-04-24T08:11:24;3.58;;;1.50;;
43327;SDS011;28923;45.412;10.852;2023-04-24T08:13:50;5.00;;;1.83;;
43327;SDS011;28923;45.412;10.852;2023-04-24T08:16:15;4.45;;;2.03;;
43327;SDS011;28923;45.412;10.852;2023-04-24T08:18:41;3.67;;;2.15;;
43327;SDS011;28923;45.412;10.852;2023-04-24T08:21:06;3.22;;;1.52;;
43327;SDS011;28923;45.412;10.852;2023-04-24T08:23:31;4.28;;;1.30;;
43327;SDS011;28923;45.412;10.852;2023-04-24T08:25:57;2.08;;;1.35;;
43327;SDS011;28923;45.412;10.852;2023-04-24T08:28:23;4.85;;;1.42;;
43327;SDS011;28923;45.412;10.852;2023-04-24T08:30:48;4.10;;;1.63;;
43327;SDS011;28923;45.412;10.852;2023-04-24T08:33:17;3.60;;;1.40;;
43327;SDS011;28923;45.412;10.852;2023-04-24T08:35:43;4.43;;;1.02;;
43327;SDS011;28923;45.412;10.852;2023-04-24T08:38:08;2.42;;;1.30;;
43327;SDS011;28923;45.412;10.852;2023-04-24T08:40:34;2.35;;;1.40;;
43327;SDS011;28923;45.412;10.852;2023-04-24T08:42:59;2.08;;;1.00;;
43327;SDS011;28923;45.412;10.852;2023-04-24T08:45:25;4.93;;;1.60;;
43327;SDS011;28923;45.412;10.852;2023-04-24T08:47:52;4.75;;;1.55;;
43327;SDS011;28923;45.412;10.852;2023-04-24T08:50:18;3.28;;;1.50;;
43327;SDS011;28923;45.412;10.852;2023-04-24T08:52:44;2.42;;;1.20;;
43327;SDS011;28923;45.412;10.852;2023-04-24T08:55:09;3.03;;;1.40;;
43327;SDS011;28923;45.412;10.852;2023-04-24T08:57:34;3.13;;;1.25;;
43327;SDS011;28923;45.412;10.852;2023-04-24T09:00:01;2.10;;;1.30;;
43327;SDS011;28923;45.412;10.852;2023-04-24T09:02:26;3.05;;;1.08;;
43327;SDS011;28923;45.412;10.852;2023-04-24T09:04:52;4.38;;;1.00;;
43327;SDS011;28923;45.412;10.852;2023-04-24T09:07:19;5.00;;;1.23;;
43327;SDS011;28923;45.412;10.852;2023-04-24T09:09:45;1.90;;;0.98;;
43327;SDS011;28923;45.412;10.852;2023-04-24T09:12:11;2.35;;;1.20;;
43327;SDS011;28923;45.412;10.852;2023-04-24T09:14:36;1.50;;;0.88;;
43327;SDS011;28923;45.412;10.852;2023-04-24T09:17:05;3.78;;;1.00;;
43327;SDS011;28923;45.412;10.852;2023-04-24T09:19:31;3.13;;;1.00;;
43327;SDS011;28923;45.412;10.852;2023-04-24T09:21:56;4.65;;;1.30;;
43327;SDS011;28923;45.412;10.852;2023-04-24T09:24:22;2.10;;;1.08;;
43327;SDS011;28923;45.412;10.852;2023-04-24T09:26:48;2.25;;;0.90;;
43327;SDS011;28923;45.412;10.852;2023-04-24T09:29:17;3.45;;;1.30;;
43327;SDS011;28923;45.412;10.852;2023-04-24T09:31:44;3.45;;;1.35;;
43327;SDS011;28923;45.412;10.852;2023-04-24T09:34:09;2.92;;;0.95;;
43327;SDS011;28923;45.412;10.852;2023-04-24T09:36:35;4.55;;;1.40;;
43327;SDS011;28923;45.412;10.852;2023-04-24T09:39:09;3.80;;;0.90;;
43327;SDS011;28923;45.412;10.852;2023-04-24T09:41:48;2.23;;;1.00;;
43327;SDS011;28923;45.412;10.852;2023-04-24T09:44:14;1.65;;;0.95;;
43327;SDS011;28923;45.412;10.852;2023-04-24T09:46:44;2.28;;;1.20;;
43327;SDS011;28923;45.412;10.852;2023-04-24T09:49:13;2.22;;;0.95;;
43327;SDS011;28923;45.412;10.852;2023-04-24T09:51:40;2.53;;;1.05;;
43327;SDS011;28923;45.412;10.852;2023-04-24T09:54:15;5.72;;;1.35;;
43327;SDS011;28923;45.412;10.852;2023-04-24T09:56:44;6.43;;;1.25;;
43327;SDS011;28923;45.412;10.852;2023-04-24T09:59:10;4.40;;;1.23;;
43327;SDS011;28923;45.412;10.852;2023-04-24T10:01:35;2.65;;;0.90;;
43327;SDS011;28923;45.412;10.852;2023-04-24T10:04:01;4.88;;;1.25;;
43327;SDS011;28923;45.412;10.852;2023-04-24T10:06:31;5.97;;;1.40;;
43327;SDS011;28923;45.412;10.852;2023-04-24T10:08:56;4.15;;;1.40;;
43327;SDS011;28923;45.412;10.852;2023-04-24T10:11:23;7.25;;;1.17;;
43327;SDS011;28923;45.412;10.852;2023-04-24T10:13:49;2.88;;;1.23;;
43327;SDS011;28923;45.412;10.852;2023-04-24T10:16:15;5.93;;;1.42;;
43327;SDS011;28923;45.412;10.852;2023-04-24T10:18:41;5.68;;;0.95;;
43327;SDS011;28923;45.412;10.852;2023-04-24T10:21:07;2.40;;;0.90;;
43327;SDS011;28923;45.412;10.852;2023-04-24T10:23:32;2.15;;;0.70;;
43327;SDS011;28923;45.412;10.852;2023-04-24T10:25:58;2.47;;;0.70;;
43327;SDS011;28923;45.412;10.852;2023-04-24T10:28:25;2.42;;;1.10;;
43327;SDS011;28923;45.412;10.852;2023-04-24T10:30:51;2.60;;;1.38;;
43327;SDS011;28923;45.412;10.852;2023-04-24T10:33:19;3.92;;;1.38;;
43327;SDS011;28923;45.412;10.852;2023-04-24T10:35:46;2.58;;;0.90;;
43327;SDS011;28923;45.412;10.852;2023-04-24T10:38:15;1.52;;;0.98;;
43327;SDS011;28923;45.412;10.852;2023-04-24T10:40:42;2.22;;;0.90;;
43327;SDS011;28923;45.412;10.852;2023-04-24T10:43:07;3.30;;;1.10;;
43327;SDS011;28923;45.412;10.852;2023-04-24T10:45:36;5.68;;;1.67;;
43327;SDS011;28923;45.412;10.852;2023-04-24T10:48:02;2.80;;;1.00;;
43327;SDS011;28923;45.412;10.852;2023-04-24T10:50:29;2.25;;;0.98;;
43327;SDS011;28923;45.412;10.852;2023-04-24T10:53:05;1.75;;;0.90;;
43327;SDS011;28923;45.412;10.852;2023-04-24T10:55:52;2.28;;;1.15;;
43327;SDS011;28923;45.412;10.852;2023-04-24T10:58:16;1.70;;;1.02;;
43327;SDS011;28923;45.412;10.852;2023-04-24T11:00:42;4.45;;;1.15;;
43327;SDS011;28923;45.412;10.852;2023-04-24T11:03:28;2.97;;;1.20;;
43327;SDS011;28923;45.412;10.852;2023-04-24T11:08:29;1.60;;;0.88;;
43327;SDS011;28923;45.412;10.852;2023-04-24T11:11:29;2.97;;;1.13;;
43327;SDS011;28923;45.412;10.852;2023-04-24T11:18:50;4.07;;;1.30;;
43327;SDS011;28923;45.412;10.852;2023-04-24T11:21:18;2.17;;;0.95;;
43327;SDS011;28923;45.412;10.852;2023-04-24T11:23:44;4.95;;;0.95;;
43327;SDS011;28923;45.412;10.852;2023-04-24T11:26:14;4.50;;;1.00;;
43327;SDS011;28923;45.412;10.852;2023-04-24T11:28:45;2.70;;;1.00;;
43327;SDS011;28923;45.412;10.852;2023-04-24T11:33:55;1.75;;;0.80;;
43327;SDS011;28923;45.412;10.852;2023-04-24T11:36:20;5.82;;;1.20;;
43327;SDS011;28923;45.412;10.852;2023-04-24T11:38:52;3.05;;;0.93;;
43327;SDS011;28923;45.412;10.852;2023-04-24T11:41:18;2.40;;;0.88;;
43327;SDS011;28923;45.412;10.852;2023-04-24T11:43:43;1.52;;;0.70;;
43327;SDS011;28923;45.412;10.852;2023-04-24T11:46:09;1.65;;;0.73;;
43327;SDS011;28923;45.412;10.852;2023-04-24T11:48:35;1.15;;;0.70;;
43327;SDS011;28923;45.412;10.852;2023-04-24T11:51:05;4.18;;;1.08;;
43327;SDS011;28923;45.412;10.852;2023-04-24T11:53:31;1.58;;;0.82;;
43327;SDS011;28923;45.412;10.852;2023-04-24T11:55:56;1.85;;;0.70;;
43327;SDS011;28923;45.412;10.852;2023-04-24T11:58:21;0.70;;;0.70;;
43327;SDS011;28923;45.412;10.852;2023-04-24T12:00:54;1.90;;;1.00;;
43327;SDS011;28923;45.412;10.852;2023-04-24T12:03:20;1.92;;;0.85;;
43327;SDS011;28923;45.412;10.852;2023-04-24T12:06:14;1.77;;;0.60;;
43327;SDS011;28923;45.412;10.852;2023-04-24T12:08:40;1.35;;;0.80;;
43327;SDS011;28923;45.412;10.852;2023-04-24T12:11:05;1.50;;;0.90;;
43327;SDS011;28923;45.412;10.852;2023-04-24T12:13:34;3.33;;;1.08;;
43327;SDS011;28923;45.412;10.852;2023-04-24T12:16:03;3.47;;;0.88;;
43327;SDS011;28923;45.412;10.852;2023-04-24T12:18:29;4.22;;;1.00;;
43327;SDS011;28923;45.412;10.852;2023-04-24T12:20:55;2.25;;;1.17;;
43327;SDS011;28923;45.412;10.852;2023-04-24T12:23:33;2.08;;;0.70;;
43327;SDS011;28923;45.412;10.852;2023-04-24T12:26:00;0.70;;;0.68;;
43327;SDS011;28923;45.412;10.852;2023-04-24T12:28:33;1.15;;;0.63;;
43327;SDS011;28923;45.412;10.852;2023-04-24T12:30:59;1.63;;;0.60;;
43327;SDS011;28923;45.412;10.852;2023-04-24T12:33:25;1.02;;;0.65;;
43327;SDS011;28923;45.412;10.852;2023-04-24T12:35:52;1.10;;;0.50;;
43327;SDS011;28923;45.412;10.852;2023-04-24T12:38:25;2.08;;;0.70;;
43327;SDS011;28923;45.412;10.852;2023-04-24T12:41:01;0.63;;;0.43;;
43327;SDS011;28923;45.412;10.852;2023-04-24T12:43:27;0.70;;;0.70;;
43327;SDS011;28923;45.412;10.852;2023-04-24T12:45:52;1.10;;;0.47;;
43327;SDS011;28923;45.412;10.852;2023-04-24T12:48:17;1.33;;;0.80;;
43327;SDS011;28923;45.412;10.852;2023-04-24T12:50:43;2.08;;;0.60;;
43327;SDS011;28923;45.412;10.852;2023-04-24T12:53:09;1.10;;;0.60;;
43327;SDS011;28923;45.412;10.852;2023-04-24T12:55:34;1.58;;;0.60;;
43327;SDS011;28923;45.412;10.852;2023-04-24T12:57:59;1.33;;;0.70;;
43327;SDS011;28923;45.412;10.852;2023-04-24T13:00:25;0.68;;;0.68;;
43327;SDS011;28923;45.412;10.852;2023-04-24T13:02:50;0.90;;;0.60;;
43327;SDS011;28923;45.412;10.852;2023-04-24T13:05:16;0.73;;;0.63;;
43327;SDS011;28923;45.412;10.852;2023-04-24T13:07:42;1.60;;;0.80;;
43327;SDS011;28923;45.412;10.852;2023-04-24T13:10:07;2.45;;;0.70;;
43327;SDS011;28923;45.412;10.852;2023-04-24T13:12:33;1.50;;;0.70;;
43327;SDS011;28923;45.412;10.852;2023-04-24T13:14:59;1.27;;;0.85;;
43327;SDS011;28923;45.412;10.852;2023-04-24T13:17:25;1.38;;;0.47;;
43327;SDS011;28923;45.412;10.852;2023-04-24T13:19:50;1.05;;;0.70;;
43327;SDS011;28923;45.412;10.852;2023-04-24T13:22:17;1.63;;;0.70;;
43327;SDS011;28923;45.412;10.852;2023-04-24T13:24:43;8.30;;;0.82;;
43327;SDS011;28923;45.412;10.852;2023-04-24T13:27:09;1.10;;;0.60;;
43327;SDS011;28923;45.412;10.852;2023-04-24T13:29:34;2.72;;;0.65;;
43327;SDS011;28923;45.412;10.852;2023-04-24T13:32:00;4.22;;;0.95;;
43327;SDS011;28923;45.412;10.852;2023-04-24T13:34:25;4.60;;;1.20;;
43327;SDS011;28923;45.412;10.852;2023-04-24T13:36:52;2.90;;;0.90;;
43327;SDS011;28923;45.412;10.852;2023-04-24T13:39:22;2.17;;;0.82;;
43327;SDS011;28923;45.412;10.852;2023-04-24T13:41:52;4.70;;;0.82;;
43327;SDS011;28923;45.412;10.852;2023-04-24T13:44:18;5.43;;;0.70;;
43327;SDS011;28923;45.412;10.852;2023-04-24T13:46:44;2.50;;;0.70;;
43327;SDS011;28923;45.412;10.852;2023-04-24T13:49:10;3.78;;;0.77;;
43327;SDS011;28923;45.412;10.852;2023-04-24T13:51:36;2.67;;;0.70;;
43327;SDS011;28923;45.412;10.852;2023-04-24T13:54:01;4.05;;;0.90;;
43327;SDS011;28923;45.412;10.852;2023-04-24T13:56:26;3.38;;;0.88;;
43327;SDS011;28923;45.412;10.852;2023-04-24T13:58:52;4.05;;;0.88;;
43327;SDS011;28923;45.412;10.852;2023-04-24T14:01:19;5.93;;;0.80;;
43327;SDS011;28923;45.412;10.852;2023-04-24T14:03:45;3.30;;;1.00;;
43327;SDS011;28923;45.412;10.852;2023-04-24T14:06:11;1.77;;;0.60;;
43327;SDS011;28923;45.412;10.852;2023-04-24T14:08:36;2.67;;;0.98;;
43327;SDS011;28923;45.412;10.852;2023-04-24T14:11:01;0.70;;;0.70;;
43327;SDS011;28923;45.412;10.852;2023-04-24T14:13:27;2.17;;;0.65;;
43327;SDS011;28923;45.412;10.852;2023-04-24T14:15:53;1.67;;;0.68;;
43327;SDS011;28923;45.412;10.852;2023-04-24T14:18:18;2.03;;;0.80;;
43327;SDS011;28923;45.412;10.852;2023-04-24T14:20:44;2.28;;;0.90;;
43327;SDS011;28923;45.412;10.852;2023-04-24T14:23:10;4.20;;;1.08;;
43327;SDS011;28923;45.412;10.852;2023-04-24T14:25:36;2.03;;;0.90;;
43327;SDS011;28923;45.412;10.852;2023-04-24T14:28:01;3.42;;;0.75;;
43327;SDS011;28923;45.412;10.852;2023-04-24T14:30:26;4.40;;;1.08;;
43327;SDS011;28923;45.412;10.852;2023-04-24T14:32:52;5.95;;;0.70;;
43327;SDS011;28923;45.412;10.852;2023-04-24T14:35:17;11.32;;;1.35;;
43327;SDS011;28923;45.412;10.852;2023-04-24T14:37:42;3.58;;;0.82;;
43327;SDS011;28923;45.412;10.852;2023-04-24T14:40:08;3.47;;;1.33;;
43327;SDS011;28923;45.412;10.852;2023-04-24T14:42:34;4.00;;;0.88;;